Time;durP1;ratioP1;P1;durP2;ratioP2;P2;SDS_P1;SDS_P2;PMS_P1;PMS_P2;Temp;Humidity;BMP_temperature;BMP_pressure;BME280_temperature;BME280_humidity;BME280_pressure;Samples;Min_cycle;Max_cycle;Signal;HPM_P1;HPM_P2
2021/03/29 00:01:25;;;;;;;13.80;7.93;;;;;;;10.61;44.46;99213.69;8314524;28;20208;-64
2021/03/29 00:05:29;;;;;;;16.33;7.90;;;;;;;10.83;43.94;99220.00;8315320;28;20204;-64
2021/03/29 00:09:34;;;;;;;18.87;7.93;;;;;;;10.77;44.37;99220.19;8316346;28;20268;-64
2021/03/29 00:13:37;;;;;;;14.63;7.47;;;;;;;10.69;44.07;99222.13;8312120;28;20231;-64
2021/03/29 00:17:40;;;;;;;13.13;7.23;;;;;;;10.61;44.18;99229.25;8298577;28;20212;-63
2021/03/29 00:21:42;;;;;;;11.87;7.13;;;;;;;10.18;45.21;99223.28;8299200;28;20209;-64
2021/03/29 00:25:44;;;;;;;10.23;6.83;;;;;;;10.28;45.13;99222.19;8298981;28;20201;-64
2021/03/29 00:29:47;;;;;;;13.20;6.80;;;;;;;10.16;45.16;99230.22;8298955;28;20237;-64
2021/03/29 00:33:50;;;;;;;10.73;6.17;;;;;;;10.36;44.96;99233.25;8298611;28;20197;-64
2021/03/29 00:37:54;;;;;;;11.33;5.80;;;;;;;10.34;44.85;99226.41;8318594;28;20228;-63
2021/03/29 00:41:56;;;;;;;11.23;5.70;;;;;;;10.42;44.52;99240.03;8331247;28;20200;-64
2021/03/29 00:46:00;;;;;;;10.37;5.60;;;;;;;10.48;44.75;99234.69;8331071;28;20528;-64
2021/03/29 00:50:08;;;;;;;9.50;5.50;;;;;;;10.47;44.44;99248.56;8330547;28;20240;-64
2021/03/29 00:54:11;;;;;;;10.23;5.97;;;;;;;10.45;44.57;99246.88;8331031;28;20211;-63
2021/03/29 00:58:14;;;;;;;13.17;6.20;;;;;;;10.39;45.26;99239.25;8330241;28;20660;-64
2021/03/29 01:02:18;;;;;;;12.20;6.10;;;;;;;10.10;45.22;99243.31;8330328;28;20303;-63
2021/03/29 01:06:21;;;;;;;11.20;6.17;;;;;;;10.30;45.08;99237.69;8330335;28;20219;-63
2021/03/29 01:10:23;;;;;;;9.67;6.00;;;;;;;10.30;45.23;99242.84;8330663;28;20552;-63
2021/03/29 01:14:26;;;;;;;9.17;5.40;;;;;;;10.25;44.67;99237.78;8330021;28;20196;-66
2021/03/29 01:18:30;;;;;;;15.27;6.07;;;;;;;10.22;45.44;99237.00;8330460;28;20589;-64
2021/03/29 01:22:34;;;;;;;10.80;6.03;;;;;;;10.27;44.71;99236.03;8330235;28;20193;-64
2021/03/29 01:26:40;;;;;;;12.23;5.97;;;;;;;10.30;45.18;99233.41;8328963;28;20200;-64
2021/03/29 01:30:43;;;;;;;11.30;6.40;;;;;;;10.22;45.26;99239.59;8330761;28;20232;-64
2021/03/29 01:34:45;;;;;;;13.10;6.47;;;;;;;10.23;45.05;99239.56;8329664;28;20219;-63
2021/03/29 01:38:47;;;;;;;11.97;6.40;;;;;;;10.24;45.38;99236.06;8329687;28;20660;-63
2021/03/29 01:42:51;;;;;;;9.57;5.93;;;;;;;10.18;45.08;99242.28;8329444;28;20196;-64
2021/03/29 01:46:53;;;;;;;10.17;6.40;;;;;;;10.06;45.77;99249.44;8329733;28;20208;-63
2021/03/29 01:50:55;;;;;;;10.17;6.00;;;;;;;10.08;45.65;99251.09;8329299;28;20250;-64
2021/03/29 01:54:57;;;;;;;9.33;5.80;;;;;;;10.10;45.87;99251.06;8329338;28;20254;-65
2021/03/29 01:59:00;;;;;;;12.43;6.30;;;;;;;9.99;46.18;99248.72;8329665;28;20209;-64
2021/03/29 02:03:05;;;;;;;12.13;6.40;;;;;;;10.03;45.87;99249.50;8329016;28;20215;-65
2021/03/29 02:07:07;;;;;;;16.27;7.10;;;;;;;9.90;45.85;99247.19;8329913;28;20207;-64
2021/03/29 02:11:09;;;;;;;14.17;6.80;;;;;;;9.98;46.05;99250.47;8329483;28;20228;-64
2021/03/29 02:15:15;;;;;;;11.73;7.00;;;;;;;10.00;46.68;99250.44;8329216;28;20627;-64
2021/03/29 02:19:17;;;;;;;17.60;6.87;;;;;;;10.13;46.11;99251.03;8329951;28;20197;-64
2021/03/29 02:23:19;;;;;;;11.57;6.30;;;;;;;10.06;45.55;99252.88;8329028;28;20247;-64
2021/03/29 02:27:22;;;;;;;9.33;6.20;;;;;;;9.96;45.97;99247.06;8329130;28;20311;-64
2021/03/29 02:31:28;;;;;;;14.60;6.10;;;;;;;9.94;45.92;99247.97;8328768;28;20208;-64
2021/03/29 02:35:30;;;;;;;10.73;6.77;;;;;;;9.84;46.33;99252.47;8328424;28;20219;-64
2021/03/29 02:39:32;;;;;;;12.20;7.23;;;;;;;9.36;47.39;99257.75;8332693;28;20251;-63
2021/03/29 02:43:34;;;;;;;15.27;8.10;;;;;;;8.86;49.15;99259.50;8335271;28;20196;-64
2021/03/29 02:47:38;;;;;;;12.47;7.80;;;;;;;8.65;49.77;99253.81;8334600;28;20307;-64
2021/03/29 02:51:42;;;;;;;9.90;6.80;;;;;;;8.98;49.05;99260.13;8334731;28;20275;-64
2021/03/29 02:55:45;;;;;;;11.90;7.43;;;;;;;9.09;48.77;99254.78;8334410;28;20203;-64
2021/03/29 02:59:47;;;;;;;12.37;6.93;;;;;;;9.33;48.58;99257.81;8334133;28;20211;-64
2021/03/29 03:03:51;;;;;;;13.17;6.20;;;;;;;9.02;48.78;99265.25;8334293;28;20196;-64
2021/03/29 03:07:54;;;;;;;13.80;6.50;;;;;;;8.78;49.27;99260.47;8334336;28;20204;-64
2021/03/29 03:11:56;;;;;;;10.80;6.60;;;;;;;8.58;50.01;99265.09;8333994;28;20220;-64
2021/03/29 03:15:57;;;;;;;12.93;6.73;;;;;;;8.65;49.70;99263.28;8334305;28;20212;-65
2021/03/29 03:20:00;;;;;;;8.53;5.70;;;;;;;8.73;49.42;99272.59;8333721;28;20203;-64
2021/03/29 03:24:04;;;;;;;11.97;6.13;;;;;;;8.59;49.69;99267.66;8333783;28;20506;-64
2021/03/29 03:28:09;;;;;;;12.43;6.40;;;;;;;8.83;49.26;99273.31;8333667;28;20233;-64
2021/03/29 03:32:14;;;;;;;12.97;6.00;;;;;;;8.87;49.08;99277.56;8333469;28;20232;-64
2021/03/29 03:36:19;;;;;;;9.50;5.60;;;;;;;9.04;48.93;99281.59;8332732;28;20197;-64
2021/03/29 03:40:22;;;;;;;11.70;6.80;;;;;;;9.08;49.08;99275.47;8332296;28;20236;-64
2021/03/29 03:44:24;;;;;;;11.50;6.00;;;;;;;9.07;48.77;99273.78;8332025;28;20208;-64
2021/03/29 03:48:27;;;;;;;12.33;6.47;;;;;;;9.02;49.28;99276.44;8331766;28;20215;-65
2021/03/29 03:52:30;;;;;;;9.57;5.90;;;;;;;8.95;48.92;99277.44;8332656;28;20224;-66
2021/03/29 03:56:33;;;;;;;10.03;5.87;;;;;;;8.96;49.12;99273.97;8332051;28;20266;-63
2021/03/29 04:00:35;;;;;;;9.50;5.67;;;;;;;8.72;49.23;99281.25;8332102;28;20212;-63
2021/03/29 04:04:37;;;;;;;11.83;5.63;;;;;;;8.77;49.04;99283.75;8332760;28;20628;-64
2021/03/29 04:08:40;;;;;;;10.93;5.40;;;;;;;8.93;48.77;99280.03;8333033;28;20196;-64
2021/03/29 04:12:45;;;;;;;11.70;5.63;;;;;;;8.87;49.06;99285.31;8332830;28;20223;-64
2021/03/29 04:16:47;;;;;;;11.83;6.20;;;;;;;8.84;48.98;99287.09;8332410;28;20577;-64
2021/03/29 04:20:50;;;;;;;9.87;5.93;;;;;;;8.88;48.80;99287.00;8331963;28;20239;-64
2021/03/29 04:24:52;;;;;;;10.50;5.90;;;;;;;8.86;48.87;99282.75;8331997;28;20516;-64
2021/03/29 04:28:54;;;;;;;11.60;5.90;;;;;;;8.73;49.13;99290.69;8332182;28;20247;-63
2021/03/29 04:32:56;;;;;;;12.30;5.60;;;;;;;8.54;49.85;99292.69;8331427;28;20205;-64
2021/03/29 04:36:58;;;;;;;12.87;6.33;;;;;;;8.71;49.17;99291.59;8330551;28;20225;-63
2021/03/29 04:41:01;;;;;;;11.57;5.90;;;;;;;8.78;49.05;99291.47;8331209;28;20235;-64
2021/03/29 04:45:04;;;;;;;10.13;5.73;;;;;;;8.76;49.03;99290.66;8330891;28;20222;-64
2021/03/29 04:49:06;;;;;;;9.47;6.17;;;;;;;8.61;49.55;99294.31;8330063;28;20534;-64
2021/03/29 04:53:08;;;;;;;19.13;13.00;;;;;;;8.39;49.99;99300.63;8329687;28;20196;-65
2021/03/29 04:57:11;;;;;;;16.80;7.37;;;;;;;8.35;50.34;99304.13;8330285;28;20196;-64
2021/03/29 05:01:12;;;;;;;11.07;6.30;;;;;;;8.42;50.25;99298.06;8329511;28;20196;-64
2021/03/29 05:05:15;;;;;;;11.27;6.43;;;;;;;8.36;49.93;99300.69;8329562;28;20207;-64
2021/03/29 05:09:16;;;;;;;14.53;6.37;;;;;;;8.47;50.16;99300.56;8327603;28;20239;-65
2021/03/29 05:13:19;;;;;;;15.70;6.27;;;;;;;8.55;49.91;99299.59;8327483;28;20220;-64
2021/03/29 05:17:22;;;;;;;14.23;6.00;;;;;;;8.63;49.76;99301.19;8327275;28;20230;-65
2021/03/29 05:21:23;;;;;;;12.37;6.17;;;;;;;9.30;49.45;99302.66;8327346;28;20569;-64
2021/03/29 05:25:26;;;;;;;16.10;7.07;;;;;;;9.17;48.65;99307.19;8326020;28;20196;-65
2021/03/29 05:29:29;;;;;;;11.80;6.27;;;;;;;9.22;48.83;99314.88;8326397;28;20641;-65
2021/03/29 05:33:31;;;;;;;12.47;6.00;;;;;;;9.26;48.62;99316.53;8329591;28;20189;-64
2021/03/29 05:37:33;;;;;;;11.07;7.17;;;;;;;9.36;47.74;99317.22;8329116;28;20224;-64
2021/03/29 05:41:35;;;;;;;15.00;6.40;;;;;;;9.17;48.15;99317.53;8329616;28;20205;-64
2021/03/29 05:45:38;;;;;;;14.30;6.40;;;;;;;9.38;47.89;99316.28;8329247;28;20203;-65
2021/03/29 05:49:40;;;;;;;17.23;6.97;;;;;;;9.54;47.47;99311.72;8329533;28;20244;-65
2021/03/29 05:53:42;;;;;;;11.23;6.57;;;;;;;9.61;47.79;99314.19;8329433;28;20499;-64
2021/03/29 05:58:05;;;;;;;12.03;6.30;;;;;;;9.38;47.69;99325.78;8329329;28;20238;-64
2021/03/29 06:02:08;;;;;;;16.80;6.30;;;;;;;8.96;48.96;99330.81;8318445;28;20220;-65
2021/03/29 06:06:20;;;;;;;21.33;7.13;;;;;;;9.22;48.62;99329.53;8329415;28;20196;-64
2021/03/29 06:10:34;;;;;;;22.70;6.50;;;;;;;9.35;48.81;99346.53;8329291;28;20211;-64
2021/03/29 06:14:36;;;;;;;17.23;7.00;;;;;;;9.41;48.14;99349.00;8335303;28;20203;-64
2021/03/29 06:18:50;;;;;;;18.60;6.80;;;;;;;9.45;48.05;99350.66;8335509;28;20298;-63
2021/03/29 06:22:51;;;;;;;30.93;10.87;;;;;;;10.16;47.01;99338.94;8335315;28;20188;-64
2021/03/29 06:27:03;;;;;;;21.63;9.27;;;;;;;11.03;44.33;99354.31;8334315;28;20211;-64
2021/03/29 06:31:20;;;;;;;16.30;6.30;;;;;;;10.83;44.67;99361.69;8322146;28;20205;-64
2021/03/29 06:35:27;;;;;;;14.10;5.87;;;;;;;11.39;43.64;99356.88;8317766;28;20189;-64
2021/03/29 06:39:35;;;;;;;17.10;6.50;;;;;;;11.49;43.38;99360.09;8317028;28;20240;-64
2021/03/29 06:43:38;;;;;;;18.47;6.13;;;;;;;11.70;43.04;99359.53;8326051;28;20208;-64
2021/03/29 06:47:41;;;;;;;13.90;6.13;;;;;;;10.89;44.88;99362.44;8327011;28;20547;-64
2021/03/29 06:51:44;;;;;;;11.10;6.00;;;;;;;10.67;45.53;99363.81;8321769;28;20546;-64
2021/03/29 06:55:46;;;;;;;12.93;6.10;;;;;;;10.40;46.86;99360.94;8322354;28;20192;-65
2021/03/29 06:59:48;;;;;;;16.47;6.83;;;;;;;10.44;46.34;99366.91;8315678;28;20203;-64
2021/03/29 07:03:51;;;;;;;16.00;6.57;;;;;;;10.40;46.57;99371.28;8332748;28;20192;-64
2021/03/29 07:07:54;;;;;;;14.63;6.33;;;;;;;10.34;46.78;99366.25;8308581;28;20673;-65
2021/03/29 07:11:57;;;;;;;14.10;6.23;;;;;;;10.68;46.34;99370.66;8326258;28;20217;-65
2021/03/29 07:15:59;;;;;;;18.50;6.90;;;;;;;11.04;45.67;99378.50;8330893;28;20208;-64
2021/03/29 07:20:02;;;;;;;12.17;6.47;;;;;;;11.10;45.84;99378.34;8317699;28;20197;-64
2021/03/29 07:24:07;;;;;;;14.73;6.40;;;;;;;11.01;46.28;99376.84;8316769;28;20189;-64
2021/03/29 07:28:10;;;;;;;15.43;6.10;;;;;;;11.26;46.21;99386.63;8314888;28;20217;-64
2021/03/29 07:32:28;;;;;;;13.63;6.43;;;;;;;11.43;46.07;99391.38;8315171;28;20212;-65
2021/03/29 07:36:41;;;;;;;16.67;6.37;;;;;;;11.65;45.62;99395.16;8312112;28;20185;-64
2021/03/29 07:40:46;;;;;;;10.67;5.80;;;;;;;11.71;45.51;99399.31;8315023;28;20216;-64
2021/03/29 07:44:52;;;;;;;14.57;5.90;;;;;;;11.88;44.77;99410.09;8311977;28;20235;-64
2021/03/29 07:48:54;;;;;;;17.60;5.77;;;;;;;12.06;44.56;99413.97;8314103;28;20205;-66
2021/03/29 07:52:57;;;;;;;10.57;6.07;;;;;;;12.33;44.15;99419.28;8315342;28;20221;-64
2021/03/29 07:57:00;;;;;;;16.13;6.23;;;;;;;12.62;43.34;99405.47;8315448;28;20216;-64
2021/03/29 08:01:05;;;;;;;10.73;5.23;;;;;;;13.84;40.86;99412.84;8316936;28;20227;-65
2021/03/29 08:05:09;;;;;;;14.53;4.90;;;;;;;14.26;40.46;99407.03;8314776;28;20200;-66
2021/03/29 08:09:16;;;;;;;11.97;5.17;;;;;;;15.37;38.18;99412.38;8315517;28;20549;-66
2021/03/29 08:13:35;;;;;;;11.00;4.53;;;;;;;15.51;36.73;99404.78;8315303;28;20188;-64
2021/03/29 08:17:46;;;;;;;7.17;4.43;;;;;;;16.17;36.48;99404.63;8314838;28;20189;-64
2021/03/29 08:21:51;;;;;;;23.47;4.60;;;;;;;16.26;36.07;99405.97;8314814;28;20274;-64
2021/03/29 08:26:10;;;;;;;11.37;4.43;;;;;;;16.84;34.95;99417.31;8314050;28;20188;-64
2021/03/29 08:30:15;;;;;;;9.60;3.80;;;;;;;17.43;34.08;99418.00;8314089;28;20224;-64
2021/03/29 08:34:19;;;;;;;8.07;3.40;;;;;;;18.05;33.63;99420.97;8314902;28;20493;-64
2021/03/29 08:38:24;;;;;;;12.30;4.93;;;;;;;18.55;33.03;99425.34;8312183;28;20224;-64
2021/03/29 08:42:29;;;;;;;10.47;4.10;;;;;;;19.03;31.55;99423.59;8313642;28;20189;-64
2021/03/29 08:46:32;;;;;;;7.57;3.13;;;;;;;18.99;31.44;99429.94;8307761;28;20192;-64
2021/03/29 08:50:36;;;;;;;7.30;3.30;;;;;;;19.61;30.45;99431.69;8298750;28;20221;-64
2021/03/29 08:54:50;;;;;;;10.37;3.33;;;;;;;19.34;29.59;99427.97;8298636;28;20209;-65
2021/03/29 08:58:55;;;;;;;10.33;3.30;;;;;;;19.95;28.70;99433.22;8298673;28;20228;-65
2021/03/29 09:02:58;;;;;;;9.03;3.20;;;;;;;20.35;28.79;99430.78;8327692;28;20271;-64
2021/03/29 09:07:00;;;;;;;9.03;2.70;;;;;;;20.82;27.02;99432.28;8330265;28;20200;-64
2021/03/29 09:11:02;;;;;;;7.93;2.70;;;;;;;20.94;26.52;99428.03;8330614;28;20242;-64
2021/03/29 09:15:12;;;;;;;11.17;3.17;;;;;;;21.55;25.18;99431.13;8330270;28;20196;-64
2021/03/29 09:19:16;;;;;;;9.03;2.87;;;;;;;21.59;24.83;99427.34;8330992;28;20195;-64
2021/03/29 09:23:20;;;;;;;8.27;3.20;;;;;;;21.89;23.99;99434.13;8330443;28;20204;-64
2021/03/29 09:27:28;;;;;;;8.47;3.37;;;;;;;22.07;23.82;99439.97;8325843;28;20247;-64
2021/03/29 09:31:33;;;;;;;7.73;3.00;;;;;;;22.22;23.83;99438.91;8315359;28;20219;-64
2021/03/29 09:35:36;;;;;;;8.33;2.73;;;;;;;22.45;22.92;99434.69;8329995;28;20200;-66
2021/03/29 09:39:38;;;;;;;7.53;2.70;;;;;;;22.68;22.83;99442.78;8330552;28;20305;-65
2021/03/29 09:43:42;;;;;;;6.63;2.60;;;;;;;22.94;22.75;99438.28;8330522;28;20260;-65
2021/03/29 09:47:59;;;;;;;6.83;2.63;;;;;;;22.92;22.36;99434.88;8329841;28;20197;-65
2021/03/29 09:52:08;;;;;;;6.40;2.90;;;;;;;23.07;21.58;99426.84;8329414;28;20210;-65
2021/03/29 09:56:10;;;;;;;8.87;2.57;;;;;;;23.05;21.71;99426.94;8330250;28;20212;-64
2021/03/29 10:00:15;;;;;;;10.13;2.97;;;;;;;23.22;21.39;99429.19;8329212;28;20205;-65
2021/03/29 10:04:17;;;;;;;7.70;2.77;;;;;;;23.11;21.94;99426.50;8330384;28;20290;-64
2021/03/29 10:08:27;;;;;;;7.53;2.57;;;;;;;;;;8325844;28;20220;-65
2021/03/29 10:12:30;;;;;;;10.53;2.57;;;;;;;22.98;21.37;99421.25;8328185;28;20580;-65
2021/03/29 10:16:31;;;;;;;6.17;2.70;;;;;;;23.28;20.96;99422.59;8329762;28;20210;-65
2021/03/29 10:20:49;;;;;;;8.90;2.60;;;;;;;23.53;22.77;99429.59;8301444;28;20656;-64
2021/03/29 10:25:00;;;;;;;10.00;3.00;;;;;;;23.15;24.18;99427.97;8297233;28;20192;-65
2021/03/29 10:29:04;;;;;;;9.77;2.70;;;;;;;23.77;23.61;99426.03;8297607;28;20604;-65
2021/03/29 10:33:08;;;;;;;12.27;3.00;;;;;;;23.40;23.70;99427.00;8315048;28;20230;-65
2021/03/29 10:37:19;;;;;;;8.47;2.90;;;;;;;23.72;23.13;99428.19;8329188;28;20281;-65
2021/03/29 10:41:22;;;;;;;5.93;2.70;;;;;;;24.02;22.10;99425.03;8329628;28;20192;-65
2021/03/29 10:45:24;;;;;;;9.53;2.43;;;;;;;24.07;22.09;99419.41;8316715;28;20217;-65
2021/03/29 10:49:26;;;;;;;7.77;2.30;;;;;;;24.12;22.19;99418.06;8307303;28;20220;-65
2021/03/29 10:53:28;;;;;;;12.77;2.73;;;;;;;23.57;21.83;99420.47;8296066;28;20208;-65
2021/03/29 10:57:30;;;;;;;8.13;2.70;;;;;;;23.62;21.62;99414.81;8296662;28;20204;-65
2021/03/29 11:01:32;;;;;;;8.43;2.67;;;;;;;23.41;21.72;99410.16;8318962;28;20204;-66
2021/03/29 11:05:35;;;;;;;5.37;2.13;;;;;;;23.42;21.81;99400.47;8334195;28;20200;-65
2021/03/29 11:09:37;;;;;;;9.00;2.50;;;;;;;23.57;21.56;99401.09;8322851;28;20216;-64
2021/03/29 11:13:40;;;;;;;4.70;2.10;;;;;;;23.33;20.86;99401.97;8301040;28;20208;-65
2021/03/29 11:17:42;;;;;;;5.77;2.40;;;;;;;22.73;21.57;99394.91;8332335;28;20200;-65
2021/03/29 11:21:45;;;;;;;6.27;1.93;;;;;;;23.06;21.54;99402.22;8334065;28;20235;-64
2021/03/29 11:25:50;;;;;;;6.70;2.20;;;;;;;23.10;20.55;99394.91;8333137;28;20533;-64
2021/03/29 11:29:53;;;;;;;9.63;2.50;;;;;;;23.49;19.11;99393.72;8334281;28;20242;-65
2021/03/29 11:33:55;;;;;;;6.67;2.23;;;;;;;23.17;20.41;99394.34;8333338;28;20203;-65
2021/03/29 11:37:57;;;;;;;6.30;2.40;;;;;;;23.48;20.82;99388.59;8332710;28;20307;-64
2021/03/29 11:41:59;;;;;;;9.13;2.17;;;;;;;23.24;19.34;99397.38;8333981;28;20214;-65
2021/03/29 11:46:02;;;;;;;5.37;2.03;;;;;;;23.55;19.42;99390.66;8333646;28;20199;-65
2021/03/29 11:50:13;;;;;;;5.07;1.97;;;;;;;23.42;19.36;99379.31;8333753;28;20560;-66
2021/03/29 11:54:16;;;;;;;4.53;2.07;;;;;;;23.38;19.62;99385.75;8333358;28;20196;-65
2021/03/29 11:58:18;;;;;;;5.93;1.97;;;;;;;23.66;19.56;99392.47;8331881;28;20209;-65
2021/03/29 12:02:25;;;;;;;6.00;1.93;;;;;;;23.64;19.40;99381.16;8332346;28;20215;-66
2021/03/29 12:06:31;;;;;;;9.33;2.03;;;;;;;23.74;20.08;99376.88;8330406;28;20211;-67
2021/03/29 12:14:53;;;;;;;6.90;1.80;;;;;;;23.63;19.16;99382.13;8314127;28;20189;-67
2021/03/29 12:18:57;;;;;;;7.37;2.10;;;;;;;23.57;18.84;99375.50;8311815;28;20226;-65
2021/03/29 12:23:00;;;;;;;7.27;2.07;;;;;;;23.55;18.45;99373.91;8327740;28;20651;-65
2021/03/29 12:27:03;;;;;;;11.90;2.00;;;;;;;23.68;19.22;99366.75;8326752;28;20223;-64
2021/03/29 12:31:07;;;;;;;10.07;2.17;;;;;;;23.64;19.67;99370.56;8332890;28;20211;-67
2021/03/29 12:35:12;;;;;;;4.83;1.70;;;;;;;23.67;19.24;99356.31;8331058;28;20504;-67
2021/03/29 12:39:19;;;;;;;7.10;1.95;;;;;;;24.15;19.22;99356.13;8326489;28;20430;-67
2021/03/29 12:43:31;;;;;;;7.93;1.93;;;;;;;24.06;19.15;99352.38;8330670;28;20199;-67
2021/03/29 12:47:35;;;;;;;8.87;2.17;;;;;;;24.12;18.92;99354.56;8330362;28;20415;-65
2021/03/29 12:51:38;;;;;;;8.70;2.03;;;;;;;23.74;19.23;99354.84;8305690;28;20223;-65
2021/03/29 12:55:40;;;;;;;4.40;1.80;;;;;;;23.44;18.73;99343.03;8314516;28;20686;-66
2021/03/29 12:59:42;;;;;;;6.23;1.90;;;;;;;23.76;18.49;99348.50;8329913;28;20204;-66
2021/03/29 13:03:46;;;;;;;6.33;1.93;;;;;;;23.63;19.09;99329.25;8328516;28;20212;-65
2021/03/29 13:07:54;;;;;;;7.10;1.90;;;;;;;23.92;18.98;99331.47;8331287;28;20207;-66
2021/03/29 13:11:57;;;;;;;6.67;1.90;;;;;;;23.57;19.47;99332.34;8330693;28;20271;-67
2021/03/29 13:15:59;;;;;;;4.80;1.77;;;;;;;23.51;19.30;99328.34;8309894;28;20243;-67
2021/03/29 13:20:01;;;;;;;6.83;2.20;;;;;;;23.58;18.96;99332.22;8317902;28;20202;-67
2021/03/29 13:24:04;;;;;;;6.43;2.17;;;;;;;23.60;18.66;99327.66;8332380;28;20212;-67
2021/03/29 13:28:06;;;;;;;4.20;1.93;;;;;;;23.99;18.87;99330.88;8329221;28;20261;-67
2021/03/29 13:32:08;;;;;;;5.23;2.07;;;;;;;23.21;19.14;99326.28;8297479;28;20305;-67
2021/03/29 13:36:10;;;;;;;6.20;1.80;;;;;;;23.85;19.15;99332.91;8297462;28;20636;-67
2021/03/29 13:40:15;;;;;;;4.27;2.00;;;;;;;23.42;18.76;99329.91;8297831;28;20357;-68
2021/03/29 13:44:17;;;;;;;7.53;2.37;;;;;;;23.30;18.42;99332.66;8311381;28;20498;-68
2021/03/29 13:48:19;;;;;;;7.37;1.70;;;;;;;23.76;19.10;99319.41;8312773;28;20203;-68
2021/03/29 13:52:21;;;;;;;6.70;2.00;;;;;;;23.50;18.76;99316.13;8329497;28;20300;-67
2021/03/29 13:56:24;;;;;;;8.63;2.10;;;;;;;23.65;18.87;99314.09;8329178;28;20207;-67
2021/03/29 14:00:28;;;;;;;8.40;2.10;;;;;;;23.41;19.05;99307.06;8323556;28;20212;-67
2021/03/29 14:04:30;;;;;;;6.53;2.30;;;;;;;23.76;19.41;99306.19;8310808;28;20212;-67
2021/03/29 14:08:32;;;;;;;8.27;2.50;;;;;;;23.64;18.91;99307.13;8297137;28;20777;-66
2021/03/29 14:12:35;;;;;;;4.90;2.37;;;;;;;23.48;18.73;99309.28;8296837;28;20220;-67
2021/03/29 14:16:37;;;;;;;10.53;2.47;;;;;;;23.55;19.98;99302.53;8296470;28;20286;-68
2021/03/29 14:20:39;;;;;;;9.23;2.20;;;;;;;23.33;19.73;99295.41;8296650;28;20208;-67
2021/03/29 14:24:42;;;;;;;7.93;1.97;;;;;;;23.03;19.63;99291.47;8296388;28;20201;-67
2021/03/29 14:28:45;;;;;;;6.33;2.30;;;;;;;23.39;20.21;99298.41;8296705;28;20247;-68
2021/03/29 14:32:48;;;;;;;5.97;2.10;;;;;;;23.38;19.98;99294.13;8297612;28;20240;-67
2021/03/29 14:36:58;;;;;;;5.23;2.47;;;;;;;22.97;19.86;99282.19;8302697;28;20250;-67
2021/03/29 14:41:06;;;;;;;8.50;2.10;;;;;;;23.12;20.23;99292.59;8303078;28;20287;-67
2021/03/29 14:45:11;;;;;;;8.53;2.17;;;;;;;23.31;20.16;99281.47;8302607;28;20199;-67
2021/03/29 14:49:12;;;;;;;5.47;1.77;;;;;;;22.84;19.32;99282.25;8302036;28;20204;-67
2021/03/29 14:53:15;;;;;;;6.33;1.97;;;;;;;22.94;20.18;99285.06;8301653;28;20605;-67
2021/03/29 14:57:17;;;;;;;7.10;2.27;;;;;;;22.90;20.32;99280.94;8301464;28;20195;-67
2021/03/29 15:01:23;;;;;;;4.80;1.90;;;;;;;23.07;21.13;99279.72;8318598;28;20286;-68
2021/03/29 15:05:32;;;;;;;4.77;1.80;;;;;;;;;;8323682;28;20189;-68
2021/03/29 15:09:33;;;;;;;6.30;1.80;;;;;;;22.92;20.26;99273.75;8302136;28;20192;-67
2021/03/29 15:13:35;;;;;;;7.07;2.30;;;;;;;22.78;20.38;99280.06;8301475;28;20560;-67
2021/03/29 15:17:39;;;;;;;8.83;2.10;;;;;;;22.61;20.32;99278.66;8302143;28;20650;-67
2021/03/29 15:21:41;;;;;;;8.83;2.50;;;;;;;22.38;20.28;99277.72;8300047;28;20208;-66
2021/03/29 15:25:44;;;;;;;6.07;2.63;;;;;;;22.53;20.80;99275.75;8330782;28;20199;-66
2021/03/29 15:29:46;;;;;;;6.20;2.43;;;;;;;22.60;20.34;99276.16;8334202;28;20239;-65
2021/03/29 15:33:49;;;;;;;5.40;2.27;;;;;;;22.41;20.71;99274.03;8333579;28;20220;-65
2021/03/29 15:37:50;;;;;;;6.07;2.33;;;;;;;22.37;20.31;99275.19;8334098;28;20557;-65
2021/03/29 15:41:52;;;;;;;7.53;2.63;;;;;;;22.20;20.51;99266.66;8323903;28;20194;-66
2021/03/29 15:45:54;;;;;;;10.40;2.70;;;;;;;22.29;20.78;99264.34;8317871;28;20190;-65
2021/03/29 15:49:58;;;;;;;8.17;2.60;;;;;;;22.21;20.10;99265.69;8315960;28;20195;-66
2021/03/29 15:54:00;;;;;;;10.10;2.50;;;;;;;22.06;20.09;99259.72;8317123;28;20534;-66
2021/03/29 15:58:04;;;;;;;7.83;2.70;;;;;;;21.86;20.18;99261.16;8314237;28;20201;-66
2021/03/29 16:02:10;;;;;;;8.43;2.57;;;;;;;21.64;20.25;99268.88;8314856;28;20204;-66
2021/03/29 16:06:13;;;;;;;4.93;2.50;;;;;;;21.62;21.18;99268.97;8318185;28;20221;-66
2021/03/29 16:10:15;;;;;;;6.03;2.50;;;;;;;21.54;20.91;99271.31;8314917;28;20190;-66
2021/03/29 16:14:17;;;;;;;5.77;2.40;;;;;;;21.35;20.91;99266.41;8319020;28;20189;-66
2021/03/29 16:18:19;;;;;;;10.37;2.90;;;;;;;21.23;21.20;99270.72;8323760;28;20232;-66
2021/03/29 16:22:22;;;;;;;5.40;2.93;;;;;;;21.12;21.51;99267.97;8333487;28;20263;-66
2021/03/29 16:26:25;;;;;;;9.73;2.97;;;;;;;20.87;21.63;99268.78;8328877;28;20223;-66
2021/03/29 16:30:27;;;;;;;9.17;2.93;;;;;;;20.76;21.83;99272.09;8332283;28;20505;-67
2021/03/29 16:34:29;;;;;;;9.00;2.63;;;;;;;20.68;22.07;99271.78;8330040;28;20215;-66
2021/03/29 16:38:32;;;;;;;7.07;2.53;;;;;;;20.57;22.02;99267.16;8331826;28;20278;-67
2021/03/29 16:42:35;;;;;;;5.90;2.20;;;;;;;20.51;22.23;99271.03;8331747;28;20743;-66
2021/03/29 16:46:38;;;;;;;9.90;2.70;;;;;;;20.38;22.40;99271.94;8331668;28;20664;-66
2021/03/29 16:50:40;;;;;;;10.23;3.00;;;;;;;20.26;22.64;99271.78;8331176;28;20690;-66
2021/03/29 16:54:43;;;;;;;7.00;2.60;;;;;;;20.23;23.29;99279.00;8331650;28;20192;-66
2021/03/29 16:58:45;;;;;;;9.00;2.60;;;;;;;20.12;23.45;99279.69;8330433;28;20196;-66
2021/03/29 17:02:47;;;;;;;11.60;2.70;;;;;;;20.04;23.87;99279.31;8331611;28;20204;-65
2021/03/29 17:06:50;;;;;;;5.27;2.53;;;;;;;19.92;24.21;99289.66;8331503;28;20299;-66
2021/03/29 17:10:54;;;;;;;4.80;2.60;;;;;;;19.79;24.40;99293.16;8331532;28;20605;-66
2021/03/29 17:14:56;;;;;;;5.07;2.40;;;;;;;19.72;24.33;99284.78;8330488;28;20246;-66
2021/03/29 17:18:58;;;;;;;7.77;2.60;;;;;;;19.63;24.77;99283.53;8330797;28;20206;-67
2021/03/29 17:23:00;;;;;;;7.87;2.43;;;;;;;19.55;24.91;99283.13;8331579;28;20208;-66
2021/03/29 17:27:04;;;;;;;12.30;2.75;;;;;;;20.03;29.29;99291.63;8329375;28;20449;-66
2021/03/29 17:31:07;;;;;;;9.13;2.43;;;;;;;19.60;28.95;99291.59;8320317;28;20660;-65
2021/03/29 17:35:10;;;;;;;8.83;2.80;;;;;;;19.52;28.23;99292.06;8323159;28;20193;-65
2021/03/29 17:39:12;;;;;;;9.57;2.77;;;;;;;19.42;29.01;99296.19;8312172;28;20213;-65
2021/03/29 17:43:15;;;;;;;8.57;3.23;;;;;;;19.21;27.21;99294.81;8311788;28;20189;-66
2021/03/29 17:47:17;;;;;;;6.47;2.77;;;;;;;19.03;28.35;99294.13;8316810;28;20217;-67
2021/03/29 17:51:20;;;;;;;8.48;3.42;;;;;;;19.42;27.41;99305.81;8315280;28;20430;-68
2021/03/29 17:55:22;;;;;;;10.40;3.20;;;;;;;18.84;28.55;99300.41;8329966;28;20200;-66
2021/03/29 17:59:25;;;;;;;9.73;3.63;;;;;;;18.71;27.72;99300.22;8329157;28;20211;-66
2021/03/29 18:03:27;;;;;;;12.80;3.93;;;;;;;18.52;28.40;99303.06;8329867;28;20208;-66
2021/03/29 18:07:30;;;;;;;10.70;4.23;;;;;;;18.47;28.58;99305.09;8317669;28;20296;-67
2021/03/29 18:11:31;;;;;;;13.23;4.20;;;;;;;18.33;29.37;99305.00;8324177;28;20217;-68
2021/03/29 18:15:34;;;;;;;14.00;4.00;;;;;;;18.13;29.55;99309.56;8325933;28;20197;-72
2021/03/29 18:19:37;;;;;;;10.77;3.80;;;;;;;18.10;30.33;99319.38;8313198;28;20194;-68
2021/03/29 18:23:40;;;;;;;9.70;4.17;;;;;;;17.98;30.10;99324.31;8318415;28;20200;-67
2021/03/29 18:27:42;;;;;;;21.15;5.30;;;;;;;18.50;34.23;99338.16;8312785;28;20439;-68
2021/03/29 18:31:45;;;;;;;18.37;7.33;;;;;;;18.30;32.70;99332.25;8310093;28;20229;-68
2021/03/29 18:35:56;;;;;;;19.80;8.40;;;;;;;18.10;30.00;99335.09;8308026;28;20209;-68
2021/03/29 18:39:58;;;;;;;17.80;10.67;;;;;;;17.91;30.27;99340.47;8329242;28;20687;-69
2021/03/29 18:44:00;;;;;;;17.13;10.20;;;;;;;17.78;31.44;99340.22;8318463;28;20360;-69
2021/03/29 18:48:04;;;;;;;13.00;8.03;;;;;;;17.57;31.53;99347.41;8317113;28;20219;-68
2021/03/29 18:52:06;;;;;;;15.63;7.97;;;;;;;17.36;32.11;99347.59;8322570;28;20702;-68
2021/03/29 18:56:24;;;;;;;15.47;7.43;;;;;;;17.23;33.37;99358.75;8333697;28;20209;-68
2021/03/29 19:00:26;;;;;;;11.60;6.60;;;;;;;17.13;32.93;99356.56;8334056;28;20196;-68
2021/03/29 19:04:30;;;;;;;12.00;6.60;;;;;;;16.96;32.80;99364.41;8335178;28;20233;-69
2021/03/29 19:08:35;;;;;;;12.97;8.10;;;;;;;16.89;33.63;99365.63;8334560;28;20204;-68